createdAt,value
2019-06-08T00:00:12.865Z,58.92
2019-06-08T00:01:12.176Z,58.81
2019-06-08T00:02:12.465Z,59.52
2019-06-08T00:03:12.809Z,59.32
2019-06-08T00:04:10.848Z,59.32
2019-06-08T00:05:10.870Z,58.61
2019-06-08T00:06:10.811Z,59.12
2019-06-08T00:07:10.839Z,59.72
2019-06-08T00:08:10.853Z,58.94
2019-06-08T00:09:10.811Z,59.52
2019-06-08T00:10:10.770Z,58.92
2019-06-08T00:11:10.763Z,58.92
2019-06-08T00:12:18.999Z,58.64
2019-06-08T00:13:10.755Z,59.42
2019-06-08T00:14:10.722Z,57.83
2019-06-08T00:15:10.738Z,58.41
2019-06-08T00:16:10.706Z,58.84
2019-06-08T00:17:26.483Z,58.94
2019-06-08T00:18:11.696Z,59.34
2019-06-08T00:19:10.685Z,58.64
2019-06-08T00:20:10.679Z,56.71
2019-06-08T00:21:10.730Z,57.93
2019-06-08T00:22:10.648Z,59.05
2019-06-08T00:23:10.658Z,58.71
2019-06-08T00:24:10.613Z,57.62
2019-06-08T00:25:10.604Z,57.62
2019-06-08T00:26:10.600Z,57.73
2019-06-08T00:27:10.615Z,57.70
2019-06-08T00:28:10.616Z,56.89
2019-06-08T00:29:10.563Z,56.99
2019-06-08T00:30:10.558Z,58.20
2019-06-08T00:31:10.540Z,56.99
2019-06-08T00:32:10.563Z,58.31
2019-06-08T00:33:10.517Z,57.60
2019-06-08T00:34:10.524Z,57.90
2019-06-08T00:35:10.492Z,58.31
2019-06-08T00:36:10.481Z,57.90
2019-06-08T00:37:10.467Z,58.00
2019-06-08T00:38:10.459Z,57.12
2019-06-08T00:39:10.468Z,57.80
2019-06-08T00:40:10.445Z,57.90
2019-06-08T00:41:10.435Z,59.12
2019-06-08T00:42:10.420Z,58.44
2019-06-08T00:43:10.408Z,57.53
2019-06-08T00:44:10.416Z,57.80
2019-06-08T00:45:10.382Z,58.13
2019-06-08T00:46:10.371Z,58.94
2019-06-08T00:47:10.360Z,58.11
2019-06-08T00:48:10.346Z,57.83
2019-06-08T00:49:10.465Z,57.50
2019-06-08T00:50:10.326Z,57.02
2019-06-08T00:51:10.314Z,57.83
2019-06-08T00:52:10.302Z,58.00
2019-06-08T00:53:10.294Z,57.02
2019-06-08T00:54:10.533Z,57.12
2019-06-08T00:55:10.270Z,56.69
2019-06-08T00:56:10.260Z,57.42
2019-06-08T00:57:10.247Z,57.93
2019-06-08T00:58:10.251Z,57.02
2019-06-08T00:59:10.248Z,56.92
2019-06-08T01:00:11.555Z,56.92
2019-06-08T01:01:10.209Z,57.02
2019-06-08T01:02:10.193Z,56.82
2019-06-08T01:03:10.190Z,56.41
2019-06-08T01:04:10.190Z,56.51
2019-06-08T01:05:10.169Z,56.82
2019-06-08T01:06:10.198Z,56.51
2019-06-08T01:07:10.161Z,56.82
2019-06-08T01:08:10.244Z,57.22
2019-06-08T01:09:10.142Z,57.42
2019-06-08T01:10:10.107Z,57.12
2019-06-08T01:11:10.100Z,57.32
2019-06-08T01:12:10.092Z,57.04
2019-06-08T01:13:10.074Z,57.15
2019-06-08T01:14:10.067Z,57.32
2019-06-08T01:15:10.128Z,57.04
2019-06-08T01:16:10.055Z,56.84
2019-06-08T01:17:10.030Z,57.04
2019-06-08T01:18:10.024Z,57.04
2019-06-08T01:19:10.008Z,57.15
2019-06-08T01:20:10.019Z,56.84
2019-06-08T01:21:10.004Z,57.53
2019-06-08T01:22:10.031Z,56.51
2019-06-08T01:23:09.967Z,56.61
2019-06-08T01:24:09.964Z,57.24
2019-06-08T01:25:09.982Z,58.13
2019-06-08T01:26:09.933Z,57.62
2019-06-08T01:27:09.923Z,56.71
2019-06-08T01:28:09.975Z,56.61
2019-06-08T01:29:09.903Z,56.54
2019-06-08T01:30:09.905Z,56.54
2019-06-08T01:31:09.898Z,56.95
2019-06-08T01:32:09.871Z,56.84
2019-06-08T01:33:09.859Z,56.95
2019-06-08T01:34:09.860Z,57.24
2019-06-08T01:35:09.839Z,57.86
2019-06-08T01:36:09.849Z,58.06
2019-06-08T01:37:09.817Z,57.24
2019-06-08T01:38:09.806Z,56.84
2019-06-08T01:39:09.812Z,56.74
2019-06-08T01:40:09.807Z,56.64
2019-06-08T01:41:09.773Z,57.15
2019-06-08T01:42:09.765Z,57.15
2019-06-08T01:43:09.765Z,57.45
2019-06-08T01:44:09.742Z,57.45
2019-06-08T01:45:09.730Z,58.06
2019-06-08T01:46:09.737Z,57.65
2019-06-08T01:47:09.708Z,57.55
2019-06-08T01:48:19.833Z,56.95
2019-06-08T01:49:10.698Z,57.45
2019-06-08T01:50:09.675Z,56.44
2019-06-08T01:51:09.689Z,57.07
2019-06-08T01:52:09.665Z,57.07
2019-06-08T01:53:09.644Z,57.15
2019-06-08T01:54:09.635Z,56.95
2019-06-08T01:55:09.623Z,57.24
2019-06-08T01:56:09.664Z,57.45
2019-06-08T01:57:09.612Z,57.45
2019-06-08T01:58:09.594Z,56.64
2019-06-08T01:59:09.583Z,57.48
2019-06-08T02:00:30.651Z,57.28
2019-06-08T02:01:10.595Z,58.29
2019-06-08T02:02:09.550Z,57.45
2019-06-08T02:03:09.537Z,56.95
2019-06-08T02:04:09.528Z,57.58
2019-06-08T02:05:09.516Z,57.48
2019-06-08T02:06:09.536Z,57.07
2019-06-08T02:07:09.501Z,57.37
2019-06-08T02:08:09.496Z,57.28
2019-06-08T02:09:09.473Z,57.88
2019-06-08T02:10:09.462Z,58.09
2019-06-08T02:11:09.504Z,57.68
2019-06-08T02:12:09.441Z,57.98
2019-06-08T02:13:09.432Z,58.09
2019-06-08T02:14:09.419Z,58.59
2019-06-08T02:15:09.409Z,57.98
2019-06-08T02:16:09.396Z,57.98
2019-06-08T02:17:09.406Z,58.49
2019-06-08T02:18:09.377Z,58.80
2019-06-08T02:19:09.367Z,59.10
2019-06-08T02:20:09.370Z,59.10
2019-06-08T02:21:09.342Z,58.80
2019-06-08T02:22:09.350Z,57.98
2019-06-08T02:23:09.324Z,57.98
2019-06-08T02:24:09.311Z,57.98
2019-06-08T02:25:09.300Z,58.90
2019-06-08T02:26:09.292Z,58.09
2019-06-08T02:27:09.300Z,58.09
2019-06-08T02:28:09.267Z,59.10
2019-06-08T02:29:09.279Z,59.00
2019-06-08T02:30:09.248Z,59.50
2019-06-08T02:31:09.238Z,59.00
2019-06-08T02:32:09.252Z,59.10
2019-06-08T02:33:09.220Z,58.39
2019-06-08T02:34:09.203Z,58.92
2019-06-08T02:35:09.193Z,58.49
2019-06-08T02:36:09.193Z,57.91
2019-06-08T02:37:09.198Z,58.11
2019-06-08T02:38:09.172Z,57.78
2019-06-08T02:39:09.154Z,57.98
2019-06-08T02:40:09.143Z,56.97
2019-06-08T02:41:09.128Z,58.49
2019-06-08T02:42:09.140Z,58.01
2019-06-08T02:43:09.107Z,57.68
2019-06-08T02:44:09.099Z,57.78
2019-06-08T02:45:09.091Z,58.18
2019-06-08T02:46:09.078Z,58.18
2019-06-08T02:47:09.093Z,58.80
2019-06-08T02:48:09.055Z,58.49
2019-06-08T02:49:09.051Z,57.88
2019-06-08T02:50:09.032Z,58.49
2019-06-08T02:51:09.028Z,58.82
2019-06-08T02:52:09.059Z,58.31
2019-06-08T02:53:09.002Z,57.68
2019-06-08T02:54:08.988Z,58.11
2019-06-08T02:55:08.980Z,57.81
2019-06-08T02:56:08.979Z,58.31
2019-06-08T02:57:08.963Z,58.09
2019-06-08T02:58:08.966Z,57.81
2019-06-08T02:59:08.943Z,57.98
2019-06-08T03:00:08.926Z,57.88
2019-06-08T03:01:08.929Z,58.18
2019-06-08T03:02:08.911Z,59.30
2019-06-08T03:03:08.915Z,57.81
2019-06-08T03:04:08.884Z,57.10
2019-06-08T03:05:08.873Z,58.18
2019-06-08T03:06:08.879Z,58.01
2019-06-08T03:07:08.851Z,58.31
2019-06-08T03:08:08.867Z,57.78
2019-06-08T03:09:08.834Z,57.81
2019-06-08T03:10:08.828Z,57.10
2019-06-08T03:11:08.817Z,57.20
2019-06-08T03:12:08.798Z,57.88
2019-06-08T03:13:08.786Z,58.01
2019-06-08T03:14:08.792Z,58.09
2019-06-08T03:15:08.767Z,57.81
2019-06-08T03:16:08.758Z,57.10
2019-06-08T03:17:08.741Z,58.01
2019-06-08T03:18:08.731Z,57.91
2019-06-08T03:19:21.003Z,57.81
2019-06-08T03:20:09.714Z,56.99
2019-06-08T03:21:08.703Z,56.99
2019-06-08T03:22:11.044Z,57.71
2019-06-08T03:23:08.680Z,57.40
2019-06-08T03:24:08.691Z,57.91
2019-06-08T03:25:08.656Z,57.81
2019-06-08T03:26:08.648Z,58.22
2019-06-08T03:27:08.642Z,59.03
2019-06-08T03:28:08.624Z,58.82
2019-06-08T03:29:08.638Z,58.52
2019-06-08T03:30:17.614Z,58.01
2019-06-08T03:31:09.612Z,58.11
2019-06-08T03:32:08.588Z,57.40
2019-06-08T03:33:08.582Z,58.62
2019-06-08T03:34:08.584Z,58.31
2019-06-08T03:35:08.550Z,58.01
2019-06-08T03:36:08.555Z,58.22
2019-06-08T03:37:08.535Z,57.10
2019-06-08T03:38:08.524Z,57.50
2019-06-08T03:39:08.525Z,56.99
2019-06-08T03:40:08.496Z,56.99
2019-06-08T03:41:08.484Z,58.11
2019-06-08T03:42:08.484Z,58.01
2019-06-08T03:43:08.463Z,57.71
2019-06-08T03:44:08.478Z,58.11
2019-06-08T03:45:08.444Z,57.81
2019-06-08T03:46:08.429Z,57.73
2019-06-08T03:47:08.432Z,56.99
2019-06-08T03:48:08.410Z,57.50
2019-06-08T03:49:08.418Z,58.01
2019-06-08T03:50:08.387Z,58.22
2019-06-08T03:51:08.381Z,58.01
2019-06-08T03:52:08.366Z,57.10
2019-06-08T03:53:08.371Z,56.99
2019-06-08T03:54:10.083Z,57.81
2019-06-08T03:55:08.346Z,57.73
2019-06-08T03:56:08.327Z,58.04
2019-06-08T03:57:08.326Z,57.91
2019-06-08T03:58:10.445Z,58.24
2019-06-08T03:59:08.316Z,58.14
2019-06-08T04:00:13.596Z,57.93
2019-06-08T04:01:09.284Z,58.85
2019-06-08T04:02:08.257Z,59.16
2019-06-08T04:03:08.250Z,59.56
2019-06-08T04:04:08.274Z,59.05
2019-06-08T04:05:08.235Z,59.26
2019-06-08T04:06:08.261Z,59.16
2019-06-08T04:07:08.205Z,58.85
2019-06-08T04:08:08.215Z,59.36
2019-06-08T04:09:08.185Z,58.85
2019-06-08T04:10:08.171Z,58.85
2019-06-08T04:11:08.168Z,59.05
2019-06-08T04:12:08.156Z,58.88
2019-06-08T04:13:11.342Z,58.37
2019-06-08T04:14:08.130Z,58.85
2019-06-08T04:15:08.137Z,58.24
2019-06-08T04:16:08.108Z,58.24
2019-06-08T04:17:08.100Z,57.73
2019-06-08T04:18:08.111Z,57.76
2019-06-08T04:19:08.099Z,59.26
2019-06-08T04:20:11.634Z,58.85
2019-06-08T04:21:08.055Z,58.85
2019-06-08T04:22:08.045Z,58.75
2019-06-08T04:23:08.047Z,59.26
2019-06-08T04:24:08.046Z,58.34
2019-06-08T04:25:08.010Z,58.14
2019-06-08T04:26:08.004Z,59.46
2019-06-08T04:27:08.001Z,58.95
2019-06-08T04:28:07.985Z,59.59
2019-06-08T04:29:07.993Z,59.16
2019-06-08T04:30:07.964Z,58.75
2019-06-08T04:31:07.957Z,59.26
2019-06-08T04:32:07.939Z,58.85
2019-06-08T04:33:07.931Z,58.85
2019-06-08T04:34:07.934Z,58.95
2019-06-08T04:35:07.901Z,59.48
2019-06-08T04:36:07.914Z,60.20
2019-06-08T04:37:07.882Z,59.36
2019-06-08T04:38:07.876Z,59.46
2019-06-08T04:39:07.885Z,58.88
2019-06-08T04:40:07.861Z,58.85
2019-06-08T04:41:07.843Z,58.98
2019-06-08T04:42:07.839Z,58.98
2019-06-08T04:43:07.832Z,59.46
2019-06-08T04:44:07.824Z,59.46
2019-06-08T04:45:07.797Z,59.36
2019-06-08T04:46:07.783Z,59.16
2019-06-08T04:47:07.810Z,60.07
2019-06-08T04:48:09.621Z,59.66
2019-06-08T04:49:07.766Z,59.66
2019-06-08T04:50:21.484Z,59.97
2019-06-08T04:51:08.737Z,59.46
2019-06-08T04:52:07.722Z,60.47
2019-06-08T04:53:07.714Z,59.77
2019-06-08T04:54:07.706Z,59.16
2019-06-08T04:55:07.712Z,59.77
2019-06-08T04:56:07.682Z,59.56
2019-06-08T04:57:07.669Z,59.05
2019-06-08T04:58:07.753Z,59.48
2019-06-08T04:59:07.651Z,59.89
2019-06-08T05:00:11.832Z,60.50
2019-06-08T05:01:08.624Z,60.71
2019-06-08T05:02:07.613Z,60.30
2019-06-08T05:03:07.620Z,60.40
2019-06-08T05:04:07.605Z,60.50
2019-06-08T05:05:07.609Z,59.79
2019-06-08T05:06:07.575Z,59.89
2019-06-08T05:07:07.559Z,60.20
2019-06-08T05:08:07.589Z,59.28
2019-06-08T05:09:07.552Z,61.21
2019-06-08T05:10:07.551Z,58.88
2019-06-08T05:11:07.527Z,57.05
2019-06-08T05:12:07.508Z,57.97
2019-06-08T05:13:07.500Z,57.46
2019-06-08T05:14:07.493Z,57.03
2019-06-08T05:15:07.473Z,57.23
2019-06-08T05:16:07.495Z,57.97
2019-06-08T05:17:07.461Z,57.76
2019-06-08T05:18:07.442Z,57.03
2019-06-08T05:19:07.429Z,58.85
2019-06-08T05:20:07.422Z,57.86
2019-06-08T05:21:07.429Z,58.06
2019-06-08T05:22:07.399Z,57.12
2019-06-08T05:23:07.387Z,56.74
2019-06-08T05:24:07.376Z,57.25
2019-06-08T05:25:07.366Z,57.86
2019-06-08T05:26:07.431Z,57.76
2019-06-08T05:27:07.358Z,57.05
2019-06-08T05:28:07.336Z,57.66
2019-06-08T05:29:07.322Z,56.95
2019-06-08T05:30:08.719Z,57.15
2019-06-08T05:31:07.319Z,57.15
2019-06-08T05:32:07.309Z,56.95
2019-06-08T05:33:07.283Z,57.35
2019-06-08T05:34:07.272Z,57.46
2019-06-08T05:35:07.261Z,57.15
2019-06-08T05:36:07.270Z,57.05
2019-06-08T05:37:07.245Z,57.66
2019-06-08T05:38:07.230Z,57.56
2019-06-08T05:39:07.221Z,59.01
2019-06-08T05:40:07.207Z,57.15
2019-06-08T05:41:07.218Z,58.06
2019-06-08T05:42:07.183Z,57.35
2019-06-08T05:43:07.174Z,57.08
2019-06-08T05:44:07.166Z,57.76
2019-06-08T05:45:07.151Z,57.05
2019-06-08T05:46:07.157Z,57.56
2019-06-08T05:47:07.132Z,57.46
2019-06-08T05:48:07.128Z,57.68
2019-06-08T05:49:07.118Z,57.59
2019-06-08T05:50:07.107Z,58.09
2019-06-08T05:51:07.114Z,58.50
2019-06-08T05:52:07.077Z,57.79
2019-06-08T05:53:07.078Z,57.89
2019-06-08T05:54:07.055Z,58.29
2019-06-08T05:55:07.047Z,58.20
2019-06-08T05:56:07.035Z,57.59
2019-06-08T05:57:07.048Z,57.76
2019-06-08T05:58:07.015Z,57.59
2019-06-08T05:59:07.002Z,57.35
2019-06-08T06:00:09.159Z,57.99
2019-06-08T06:01:06.983Z,57.89
2019-06-08T06:02:06.998Z,57.99
2019-06-08T06:03:06.965Z,57.99
2019-06-08T06:04:06.950Z,58.91
2019-06-08T06:05:06.950Z,57.59
2019-06-08T06:06:06.924Z,58.60
2019-06-08T06:07:06.933Z,59.11
2019-06-08T06:08:18.400Z,58.91
2019-06-08T06:09:07.910Z,57.05
2019-06-08T06:10:06.884Z,58.09
2019-06-08T06:11:06.872Z,58.20
2019-06-08T06:12:14.480Z,56.98
2019-06-08T06:13:06.865Z,59.21
2019-06-08T06:14:14.404Z,57.79
2019-06-08T06:15:06.882Z,56.98
2019-06-08T06:16:14.408Z,58.60
2019-06-08T06:17:06.872Z,57.97
2019-06-08T06:18:06.803Z,59.08
2019-06-08T06:19:14.423Z,57.79
2019-06-08T06:20:06.807Z,57.28
2019-06-08T06:21:14.342Z,58.78
2019-06-08T06:22:06.780Z,58.80
2019-06-08T06:23:06.753Z,57.35
2019-06-08T06:24:14.324Z,58.06
2019-06-08T06:25:06.758Z,58.67
2019-06-08T06:26:14.282Z,57.76
2019-06-08T06:27:06.746Z,57.97
2019-06-08T06:28:14.230Z,58.37
2019-06-08T06:29:06.713Z,57.12
2019-06-08T06:30:06.669Z,57.86
2019-06-08T06:31:14.214Z,57.86
2019-06-08T06:32:06.689Z,57.97
2019-06-08T06:33:14.218Z,57.97
2019-06-08T06:34:06.623Z,59.08
2019-06-08T06:35:06.614Z,58.17
2019-06-08T06:36:14.191Z,58.06
2019-06-08T06:37:06.599Z,58.06
2019-06-08T06:38:14.132Z,58.17
2019-06-08T06:39:06.594Z,57.97
2019-06-08T06:40:14.184Z,57.97
2019-06-08T06:41:06.594Z,58.88
2019-06-08T06:42:14.082Z,58.17
2019-06-08T06:43:06.607Z,57.97
2019-06-08T06:44:14.084Z,57.97
2019-06-08T06:45:06.512Z,57.73
2019-06-08T06:46:06.516Z,58.04
2019-06-08T06:47:06.496Z,58.85
2019-06-08T06:48:14.049Z,59.28
2019-06-08T06:49:06.475Z,59.48
2019-06-08T06:50:14.070Z,59.16
2019-06-08T06:51:06.460Z,58.17
2019-06-08T06:52:13.989Z,58.95
2019-06-08T06:53:06.478Z,58.04
2019-06-08T06:54:14.038Z,58.75
2019-06-08T06:55:06.406Z,59.16
2019-06-08T06:56:14.036Z,59.18
2019-06-08T06:57:06.383Z,59.18
2019-06-08T06:58:13.950Z,59.28
2019-06-08T06:59:06.461Z,59.18
2019-06-08T07:00:13.982Z,59.59
2019-06-08T07:01:06.378Z,59.79
2019-06-08T07:02:06.350Z,59.18
2019-06-08T07:03:06.325Z,59.99
2019-06-08T07:04:13.900Z,60.50
2019-06-08T07:05:06.314Z,60.50
2019-06-08T07:06:13.856Z,59.28
2019-06-08T07:07:06.362Z,60.60
2019-06-08T07:08:13.846Z,59.28
2019-06-08T07:09:06.266Z,59.08
2019-06-08T07:10:06.266Z,59.56
2019-06-08T07:11:06.261Z,58.78
2019-06-08T07:12:06.225Z,59.48
2019-06-08T07:13:06.225Z,58.37
2019-06-08T07:14:13.790Z,57.97
2019-06-08T07:15:06.198Z,59.18
2019-06-08T07:16:17.796Z,58.88
2019-06-08T07:17:07.170Z,59.08
2019-06-08T07:18:06.152Z,57.86
2019-06-08T07:19:06.132Z,57.76
2019-06-08T07:20:13.714Z,57.97
2019-06-08T07:21:06.170Z,59.16
2019-06-08T07:22:06.140Z,59.16
2019-06-08T07:23:06.104Z,57.84
2019-06-08T07:24:06.083Z,58.95
2019-06-08T07:25:06.090Z,58.34
2019-06-08T07:26:06.110Z,58.14
2019-06-08T07:27:07.529Z,58.75
2019-06-08T07:28:06.041Z,59.16
2019-06-08T07:29:06.022Z,58.04
2019-06-08T07:30:06.037Z,58.24
2019-06-08T07:31:06.025Z,57.12
2019-06-08T07:32:06.017Z,58.01
2019-06-08T07:33:06.002Z,58.04
2019-06-08T07:34:05.977Z,57.71
2019-06-08T07:35:06.005Z,57.10
2019-06-08T07:36:05.977Z,57.71
2019-06-08T07:37:05.967Z,57.93
2019-06-08T07:38:05.989Z,57.12
2019-06-08T07:39:05.929Z,56.82
2019-06-08T07:40:13.462Z,56.70
2019-06-08T07:41:05.957Z,56.79
2019-06-08T07:42:05.918Z,56.70
2019-06-08T07:43:13.449Z,57.30
2019-06-08T07:44:05.873Z,56.99
2019-06-08T07:45:05.859Z,57.10
2019-06-08T07:46:13.424Z,56.46
2019-06-08T07:47:05.932Z,56.26
2019-06-08T07:48:13.538Z,56.79
2019-06-08T07:49:05.838Z,56.59
2019-06-08T07:50:13.425Z,57.71
2019-06-08T07:51:05.865Z,56.99
2019-06-08T07:52:13.381Z,58.01
2019-06-08T07:53:05.920Z,56.39
2019-06-08T07:54:13.448Z,57.07
2019-06-08T07:55:05.817Z,57.48
2019-06-08T07:56:13.341Z,55.78
2019-06-08T07:57:05.750Z,56.99
2019-06-08T07:58:13.284Z,57.28
2019-06-08T07:59:05.742Z,56.26
2019-06-08T08:00:13.301Z,56.36
2019-06-08T08:01:08.162Z,55.76
2019-06-08T08:03:21.411Z,56.26
2019-06-08T08:04:28.900Z,55.25
2019-06-08T08:05:32.742Z,56.36
2019-06-08T08:06:21.402Z,56.36
2019-06-08T08:07:28.901Z,55.85
2019-06-08T08:08:22.139Z,57.07
2019-06-08T08:09:29.308Z,57.17
2019-06-08T08:10:21.331Z,56.46
2019-06-08T08:11:21.273Z,55.55
2019-06-08T08:12:21.272Z,55.65
2019-06-08T08:13:21.240Z,56.16
2019-06-08T08:14:21.260Z,55.73
2019-06-08T08:15:21.220Z,56.36
2019-06-08T08:16:21.238Z,55.55
2019-06-08T08:17:21.368Z,56.87
2019-06-08T08:19:43.733Z,56.97
2019-06-08T08:20:51.079Z,56.26
2019-06-08T08:21:42.915Z,56.26
2019-06-08T08:22:56.077Z,55.45
2019-06-08T08:24:55.603Z,57.45
2019-06-08T08:27:03.806Z,56.44
2019-06-08T08:28:09.921Z,56.74
2019-06-08T08:29:09.933Z,56.74
2019-06-08T08:31:19.743Z,58.06
2019-06-08T08:32:28.352Z,60.19
2019-06-08T08:33:28.377Z,58.26
2019-06-08T08:34:28.402Z,57.96
2019-06-08T08:35:28.043Z,56.74
2019-06-08T08:36:21.034Z,56.95
2019-06-08T08:38:47.810Z,57.96
2019-06-08T08:39:54.027Z,57.15
2019-06-08T08:40:55.154Z,57.15
2019-06-08T08:41:56.971Z,57.45
2019-06-08T08:42:48.291Z,57.15
2019-06-08T08:43:58.234Z,55.63
2019-06-08T08:44:48.499Z,57.73
2019-06-08T08:45:47.700Z,58.03
2019-06-08T08:46:54.721Z,55.27
2019-06-08T08:47:48.358Z,56.28
2019-06-08T08:48:48.493Z,55.65
2019-06-08T08:49:47.970Z,55.44
2019-06-08T08:50:48.192Z,56.84
2019-06-08T08:51:47.723Z,53.67
2019-06-08T08:52:47.719Z,53.75
2019-06-08T08:53:48.198Z,52.84
2019-06-08T08:54:47.556Z,52.84
2019-06-08T08:55:47.989Z,53.32
2019-06-08T08:56:50.442Z,52.61
2019-06-08T08:57:48.427Z,53.42
2019-06-08T08:58:47.809Z,53.50
2019-06-08T08:59:50.148Z,53.60
2019-06-08T09:00:48.582Z,52.87
2019-06-08T09:01:48.122Z,52.87
2019-06-08T09:02:46.051Z,52.67
2019-06-08T09:03:48.223Z,53.75
2019-06-08T09:04:55.157Z,53.55
2019-06-08T09:05:48.197Z,53.63
2019-06-08T09:06:53.614Z,53.63
2019-06-08T09:07:48.180Z,52.51
2019-06-08T09:08:53.923Z,53.32
2019-06-08T09:09:48.069Z,49.79
2019-06-08T09:10:56.106Z,49.41
2019-06-08T09:11:54.884Z,52.34
2019-06-08T09:14:05.238Z,51.13
2019-06-08T09:15:09.393Z,51.53
2019-06-08T09:16:09.299Z,52.47
2019-06-08T09:17:03.388Z,52.67
2019-06-08T09:18:09.720Z,53.09
2019-06-08T09:19:04.037Z,52.89
2019-06-08T09:20:15.473Z,53.30
2019-06-08T09:21:03.972Z,53.00
2019-06-08T09:22:09.261Z,52.82
2019-06-08T09:24:01.972Z,52.72
2019-06-08T09:25:02.736Z,52.92
2019-06-08T09:26:05.956Z,52.41
2019-06-08T09:28:08.493Z,54.74
2019-06-08T09:30:24.041Z,52.92
2019-06-08T09:31:31.733Z,53.05
2019-06-08T09:32:23.971Z,54.94
2019-06-08T09:33:31.504Z,52.72
2019-06-08T09:34:23.933Z,53.14
2019-06-08T09:35:31.513Z,52.84
2019-06-08T09:36:23.931Z,53.34
2019-06-08T09:37:31.479Z,53.34
2019-06-08T09:38:23.914Z,53.14
2019-06-08T09:39:31.466Z,53.38
2019-06-08T09:40:25.918Z,53.55
2019-06-08T09:41:23.883Z,53.65
2019-06-08T09:42:31.366Z,53.42
2019-06-08T09:43:23.858Z,54.13
2019-06-08T09:45:33.581Z,54.13
2019-06-08T09:46:41.277Z,53.52
2019-06-08T09:47:33.504Z,54.31
2019-06-08T09:48:41.062Z,53.20
2019-06-08T09:49:33.546Z,53.50
2019-06-08T09:50:33.485Z,54.51
2019-06-08T09:51:33.476Z,53.40
2019-06-08T09:52:33.499Z,53.50
2019-06-08T09:53:37.703Z,55.59
2019-06-08T09:54:34.453Z,55.39
2019-06-08T09:55:33.416Z,55.26
2019-06-08T09:56:33.404Z,52.54
2019-06-08T09:57:33.410Z,52.84
2019-06-08T09:58:33.410Z,53.85
2019-06-08T09:59:33.409Z,52.74
2019-06-08T10:00:41.876Z,55.36
2019-06-08T10:01:34.497Z,54.56
2019-06-08T10:02:36.597Z,51.93
2019-06-08T10:03:33.328Z,52.64
2019-06-08T10:04:33.335Z,52.64
2019-06-08T10:05:33.339Z,52.74
2019-06-08T10:06:33.361Z,51.33
2019-06-08T10:07:33.283Z,51.33
2019-06-08T10:08:33.275Z,52.14
2019-06-08T10:09:33.291Z,50.02
2019-06-08T10:10:33.255Z,51.35
2019-06-08T10:11:33.242Z,51.86
2019-06-08T10:12:33.235Z,53.47
2019-06-08T10:13:33.240Z,53.55
2019-06-08T10:14:33.237Z,52.74
2019-06-08T10:15:33.390Z,52.64
2019-06-08T10:16:33.217Z,51.73
2019-06-08T10:17:33.192Z,51.03
2019-06-08T10:18:33.164Z,53.34
2019-06-08T10:19:33.152Z,51.84
2019-06-08T10:20:33.400Z,52.24
2019-06-08T10:21:43.081Z,53.45
2019-06-08T10:22:38.458Z,53.65
2019-06-08T10:23:34.702Z,53.02
2019-06-08T10:24:33.101Z,53.02
2019-06-08T10:25:33.114Z,54.13
2019-06-08T10:26:33.083Z,53.40
2019-06-08T10:27:33.070Z,51.91
2019-06-08T10:28:33.079Z,53.12
2019-06-08T10:29:33.048Z,53.42
2019-06-08T10:30:33.050Z,51.81
2019-06-08T10:31:38.471Z,53.02
2019-06-08T10:32:34.017Z,53.30
2019-06-08T10:33:33.002Z,52.72
2019-06-08T10:34:33.008Z,53.40
2019-06-08T10:35:33.015Z,52.82
2019-06-08T10:36:32.981Z,53.02
2019-06-08T10:37:32.973Z,51.79
2019-06-08T10:38:32.946Z,54.81
2019-06-08T10:39:32.934Z,53.98
2019-06-08T10:40:32.942Z,51.73
2019-06-08T10:41:32.912Z,50.53
2019-06-08T10:42:32.957Z,52.34
2019-06-08T10:43:32.897Z,53.75
2019-06-08T10:44:32.889Z,52.92
2019-06-08T10:45:32.896Z,52.82
2019-06-08T10:46:32.863Z,56.41
2019-06-08T10:47:32.851Z,52.39
2019-06-08T10:48:32.842Z,51.97
2019-06-08T10:49:32.827Z,53.14
2019-06-08T10:50:32.852Z,50.23
2019-06-08T10:51:32.824Z,50.15
2019-06-08T10:52:32.794Z,48.97
2019-06-08T10:53:46.428Z,49.30
2019-06-08T10:54:33.781Z,47.99
2019-06-08T10:55:32.787Z,49.19
2019-06-08T10:56:32.802Z,51.64
2019-06-08T10:57:32.751Z,51.93
2019-06-08T10:58:32.732Z,52.14
2019-06-08T10:59:32.720Z,49.32
2019-06-08T11:00:32.761Z,50.05
2019-06-08T11:01:32.695Z,51.56
2019-06-08T11:02:32.689Z,53.20
2019-06-08T11:03:32.754Z,51.48
2019-06-08T11:04:32.679Z,52.69
2019-06-08T11:05:32.681Z,52.49
2019-06-08T11:06:33.453Z,52.89
2019-06-08T11:07:32.656Z,53.88
2019-06-08T11:08:32.629Z,54.86
2019-06-08T11:09:32.616Z,52.94
2019-06-08T11:10:32.629Z,53.63
2019-06-08T11:11:32.634Z,53.02
2019-06-08T11:12:32.577Z,50.98
2019-06-08T11:13:32.572Z,51.11
2019-06-08T11:14:32.555Z,51.81
2019-06-08T11:15:32.552Z,49.60
2019-06-08T11:16:32.560Z,51.89
2019-06-08T11:17:32.534Z,50.28
2019-06-08T11:18:32.512Z,49.48
2019-06-08T11:19:32.504Z,49.57
2019-06-08T11:20:32.496Z,51.68
2019-06-08T11:21:32.503Z,49.07
2019-06-08T11:22:32.477Z,50.48
2019-06-08T11:23:32.472Z,50.68
2019-06-08T11:24:32.459Z,51.59
2019-06-08T11:25:32.439Z,51.09
2019-06-08T11:26:32.461Z,52.01
2019-06-08T11:27:32.416Z,51.61
2019-06-08T11:28:32.417Z,52.62
2019-06-08T11:29:32.396Z,47.91
2019-06-08T11:30:32.384Z,50.63
2019-06-08T11:31:32.507Z,49.52
2019-06-08T11:32:32.361Z,48.34
2019-06-08T11:33:32.361Z,50.05
2019-06-08T11:34:32.339Z,51.97
2019-06-08T11:35:32.347Z,49.77
2019-06-08T11:36:32.341Z,51.38
2019-06-08T11:37:32.308Z,50.80
2019-06-08T11:38:32.297Z,51.18
2019-06-08T11:39:32.295Z,51.48
2019-06-08T11:40:32.274Z,53.00
2019-06-08T11:41:32.290Z,52.47
2019-06-08T11:42:32.258Z,53.14
2019-06-08T11:43:32.242Z,51.61
2019-06-08T11:44:32.245Z,52.09
2019-06-08T11:45:32.221Z,47.66
2019-06-08T11:46:32.211Z,47.86
2019-06-08T11:47:32.222Z,48.07
2019-06-08T11:48:32.190Z,50.48
2019-06-08T11:49:32.180Z,48.87
2019-06-08T11:50:32.170Z,49.48
2019-06-08T11:51:32.158Z,49.98
2019-06-08T11:52:32.189Z,51.59
2019-06-08T11:53:32.138Z,48.07
2019-06-08T11:54:37.094Z,50.20
2019-06-08T11:55:33.116Z,51.11
2019-06-08T11:56:32.111Z,50.51
2019-06-08T11:57:32.456Z,50.43
2019-06-08T11:58:32.080Z,50.02
2019-06-08T11:59:32.086Z,49.65
2019-06-08T12:00:32.059Z,51.23
2019-06-08T12:01:32.050Z,51.26
2019-06-08T12:02:32.057Z,50.05
2019-06-08T12:03:32.066Z,51.56
2019-06-08T12:04:32.014Z,50.85
2019-06-08T12:05:32.005Z,51.66
2019-06-08T12:06:31.996Z,51.16
2019-06-08T12:07:32.028Z,50.96
2019-06-08T12:08:31.976Z,50.96
2019-06-08T12:09:31.964Z,53.07
2019-06-08T12:10:31.954Z,51.23
2019-06-08T12:11:31.942Z,51.14
2019-06-08T12:12:39.510Z,53.34
2019-06-08T12:13:31.926Z,53.14
2019-06-08T12:14:33.651Z,51.03
2019-06-08T12:15:31.911Z,51.23
2019-06-08T12:16:31.914Z,50.93
2019-06-08T12:17:31.907Z,52.94
2019-06-08T12:18:31.870Z,54.05
2019-06-08T12:19:31.904Z,55.46
2019-06-08T12:20:31.878Z,54.93
2019-06-08T12:21:31.878Z,52.42
2019-06-08T12:22:31.926Z,52.84
2019-06-08T12:23:31.821Z,52.22
2019-06-08T12:24:41.357Z,50.31
2019-06-08T12:25:32.787Z,49.32
2019-06-08T12:26:31.778Z,47.71
2019-06-08T12:27:36.371Z,48.61
2019-06-08T12:28:32.773Z,49.73
2019-06-08T12:29:31.746Z,49.22
2019-06-08T12:30:31.735Z,51.71
2019-06-08T12:31:31.723Z,49.80
2019-06-08T12:32:31.712Z,47.49
2019-06-08T12:33:31.741Z,50.51
2019-06-08T12:34:31.692Z,51.18
2019-06-08T12:35:31.690Z,51.86
2019-06-08T12:36:31.670Z,49.63
2019-06-08T12:37:31.658Z,50.11
2019-06-08T12:38:34.451Z,48.22
2019-06-08T12:39:31.637Z,49.91
2019-06-08T12:40:31.625Z,52.01
2019-06-08T12:41:31.623Z,51.92
2019-06-08T12:42:31.629Z,51.21
2019-06-08T12:43:31.596Z,44.28
2019-06-08T12:44:31.598Z,44.68
2019-06-08T12:45:31.571Z,47.54
2019-06-08T12:46:31.562Z,46.31
2019-06-08T12:47:31.553Z,44.71
2019-06-08T12:48:31.559Z,46.36
2019-06-08T12:49:31.528Z,47.64
2019-06-08T12:50:31.519Z,47.24
2019-06-08T12:51:31.511Z,48.14
2019-06-08T12:52:31.496Z,47.94
2019-06-08T12:53:31.515Z,47.26
2019-06-08T12:54:31.474Z,47.16
2019-06-08T12:55:31.466Z,48.77
2019-06-08T12:56:31.453Z,47.16
2019-06-08T12:57:31.444Z,47.66
2019-06-08T12:58:31.451Z,47.97
2019-06-08T12:59:31.421Z,49.35
2019-06-08T13:00:31.410Z,47.02
2019-06-08T13:01:31.400Z,49.30
2019-06-08T13:02:31.403Z,47.70
2019-06-08T13:03:31.424Z,49.51
2019-06-08T13:04:31.367Z,49.91
2019-06-08T13:05:31.358Z,45.49